Flight Track Log - Related Links

Times and Time Zones

All times are in EST time to prevent confusion due to time zone crossing. See the AWI3962 flight status page for this flight to view local times or setup timezone preferences in your user account.

Time Position Orientation Groundspeed Altitude Reporting Facility
EST Latitude Longitude Course Direction KTS MPH feet Rate Location/Type
Wed 04:25:44 PM 39.8667 -75.2667 218° Southwest 146 168 700  Level Philadelphia TRACON
Wed 04:26:51 PM 39.8167 -75.3167 218° Southwest 231 266 3,200 2,083 Climbing Philadelphia TRACON
Wed 04:27:45 PM 39.7500 -75.3500 201° Southwest 300 345 4,900 2,632 Climbing Philadelphia TRACON
Wed 04:28:45 PM 39.7000 -75.2833 134° Southeast 279 321 8,200 2,600 Climbing Philadelphia TRACON
Wed 04:29:45 PM 39.7000 -75.1833 90° East 327 376 10,100 1,762 Climbing Philadelphia TRACON
Wed 04:30:51 PM 39.7333 -75.0500 72° East 341 392 11,900 883 Climbing Philadelphia TRACON
Wed 04:32:28 PM 39.7678 -74.8489 77° East 367 422 12,500 688 Climbing New York Center
Wed 04:33:28 PM 39.7950 -74.7236 74° East 378 435 13,700 1,450 Climbing New York Center
Wed 04:34:28 PM 39.8775 -74.6281 42° Northeast 372 428 15,400 1,500 Climbing New York Center
Wed 04:35:28 PM 39.9722 -74.5386 36° Northeast 385 443 16,700 1,300 Climbing New York Center
Wed 04:36:28 PM 40.0817 -74.4361 36° Northeast 423 487 18,000 1,450 Climbing New York Center
Wed 04:37:28 PM 40.1761 -74.3486 35° Northeast 447 514 19,600 1,500 Climbing New York Center
Wed 04:38:28 PM 40.2892 -74.2647 30° Northeast 458 527 21,000 1,388 Climbing New York Center
Wed 04:39:29 PM 40.4000 -74.1750 32° Northeast 469 540 22,400 1,400 Climbing New York Center
Wed 04:40:28 PM 40.5108 -74.0850 32° Northeast 464 534 23,800 807 Climbing New York Center
Wed 04:41:28 PM 40.6261 -73.9947 31° Northeast 464 534 24,000 66 Climbing New York Center
Wed 04:43:30 PM 40.8511 -73.7922 34° Northeast 510 587 24,000 -165 Level Boston Center
Wed 04:44:30 PM 40.9561 -73.6636 43° Northeast 514 592 23,500 -496 Descending Boston Center
Wed 04:45:31 PM 41.0836 -73.5075 43° Northeast 518 596 23,000 -793 Descending Boston Center
Wed 04:46:31 PM 41.2147 -73.4469 19° North 517 595 21,900 -1,065 Descending Boston Center
Wed 04:47:35 PM 41.3481 -73.4586 356° North 486 559 20,800 -1,104 Descending Boston Center
Wed 04:48:36 PM 41.4714 -73.4675 357° North 449 517 19,600 -942 Descending Boston Center
Wed 04:49:36 PM 41.6011 -73.4811 356° North 446 513 18,900 -1,240 Descending Boston Center
Wed 04:50:37 PM 41.7247 -73.4925 356° North 447 514 17,100 -1,525 Descending Boston Center
Wed 04:51:38 PM 41.8431 -73.5031 356° North 431 496 15,800 -1,475 Descending Boston Center
Wed 04:52:39 PM 41.9681 -73.5144 356° North 421 484 14,100 -1,629 Descending Boston Center
Wed 04:52:48 PM 41.9778 -73.5133 North 417 480 13,900 -2,308 Descending Boston Center
Wed 04:53:18 PM 42.0369 -73.5183 356° North 400 460 12,600 -2,353 Descending Boston Center
Wed 04:53:39 PM 42.0653 -73.5206 357° North 397 457 11,900 -1,500 Descending Boston Center
Wed 04:54:18 PM 42.1375 -73.5200 360° North 358 412 11,100 -800 Descending Boston Center
Wed 04:54:39 PM 42.1611 -73.5181 North 370 426 11,100  Level Boston Center
Wed 04:55:19 PM 42.2336 -73.5111 North 337 388 11,100  Level Boston Center
Wed 04:55:43 PM 42.2511 -73.5225 334° Northwest 332 382 11,100 -1,377 Level Boston Center
Wed 04:56:20 PM 42.3006 -73.5681 326° Northwest 271 312 9,700 -2,165 Descending Boston Center
Wed 04:57:20 PM 42.3669 -73.6278 326° Northwest 281 323 7,600 -1,916 Descending Boston Center
Wed 04:58:19 PM 42.4311 -73.6869 326° Northwest 280 322 5,900 -1,672 Descending Boston Center
Wed 04:59:22 PM 42.4864 -73.7372 326° Northwest 231 266 4,200 -1,756 Descending Boston Center
Wed 05:00:22 PM 42.5419 -73.7850 328° Northwest 217 250 2,300 -1,041 Descending Boston Center
Wed 05:01:23 PM 42.5869 -73.7972 349° North 142 163 2,100 -99 Descending Boston Center
Wed 05:02:23 PM 42.6253 -73.7986 358° North 134 154 2,100 -98 Level Boston Center
Wed 05:03:25 PM 42.6614 -73.8019 356° North 133 153 1,900 -403 Descending Boston Center
Wed 05:04:22 PM 42.6953 -73.8044 357° North 116 133 1,300 -706 Descending Boston Center
Wed 05:05:24 PM 42.7317 -73.8053 359° North 131 151 500 -774 Descending Boston Center
Wed 05:07:00 PM 42.7333 -73.8000 North  Level FlightAware Approximate
Wed 05:14:00 PM 42.7491 -73.8020 North  Level Estimated

Login

Don't have an account? Register now (free) for customized features, flight alerts, and more!